Time;durP1;ratioP1;P1;durP2;ratioP2;P2;SDS_P1;SDS_P2;PMS_P1;PMS_P2;Temp;Humidity;BMP_temperature;BMP_pressure;BME280_temperature;BME280_humidity;BME280_pressure;Samples;Min_cycle;Max_cycle;Signal;HPM_P1;HPM_P2
2022/03/09 00:01:27;;;;;;;6.93;3.70;;;0.90;99.90;;;;;;4973806;28;20038;-88
2022/03/09 00:04:04;;;;;;;11.07;3.42;;;1.00;99.90;;;;;;4973604;28;20058;-87
2022/03/09 00:06:42;;;;;;;6.18;3.47;;;0.40;99.90;;;;;;4973592;28;20069;-87
2022/03/09 00:16:09;;;;;;;6.05;3.00;;;0.40;99.90;;;;;;4948509;28;20105;-88
2022/03/09 00:19:13;;;;;;;8.32;3.17;;;0.80;99.90;;;;;;4990666;28;20065;-87
2022/03/09 00:21:47;;;;;;;9.90;3.15;;;0.60;99.90;;;;;;4958573;28;20101;-87
2022/03/09 00:24:27;;;;;;;5.88;2.92;;;1.30;99.90;;;;;;4973984;28;20039;-87
2022/03/09 00:27:44;;;;;;;9.52;3.33;;;1.00;99.90;;;;;;4972933;28;20169;-87
2022/03/09 00:41:11;;;;;;;8.50;3.05;;;0.20;99.90;;;;;;4967742;28;20050;-88
2022/03/09 00:43:51;;;;;;;5.78;2.95;;;-0.40;99.90;;;;;;4973414;28;20416;-87
2022/03/09 00:46:55;;;;;;;6.03;3.20;;;0.60;99.90;;;;;;4972499;28;20046;-86
2022/03/09 00:49:33;;;;;;;6.32;3.08;;;0.50;99.90;;;;;;4963652;28;20120;-87
2022/03/09 00:52:02;;;;;;;5.20;2.90;;;0.00;99.90;;;;;;4990790;23;20044;-87
2022/03/09 00:54:34;;;;;;;5.95;2.67;;;0.40;99.90;;;;;;5014333;28;20087;-88
2022/03/09 00:57:07;;;;;;;6.57;3.13;;;1.50;99.90;;;;;;5013563;28;20147;-86
2022/03/09 00:59:42;;;;;;;5.88;3.00;;;0.40;99.90;;;;;;5015498;28;20084;-86
2022/03/09 01:02:24;;;;;;;8.05;3.25;;;0.30;99.90;;;;;;5014259;28;20439;-86
2022/03/09 01:04:58;;;;;;;7.13;2.80;;;0.40;99.90;;;;;;5014455;28;20408;-88
2022/03/09 01:07:30;;;;;;;6.60;3.03;;;1.00;99.90;;;;;;5013121;28;20045;-87
2022/03/09 01:10:07;;;;;;;9.73;3.60;;;0.40;99.90;;;;;;5015219;28;20091;-86
2022/03/09 01:12:42;;;;;;;7.18;3.20;;;-0.20;99.90;;;;;;5030915;28;20051;-87
2022/03/09 01:15:23;;;;;;;5.53;3.08;;;0.20;99.90;;;;;;5030798;28;20469;-88
2022/03/09 01:17:51;;;;;;;7.88;3.53;;;0.80;99.90;;;;;;5014932;28;20496;-86
2022/03/09 01:20:28;;;;;;;8.20;3.08;;;1.10;99.90;;;;;;5010631;28;20052;-86
2022/03/09 01:23:02;;;;;;;7.32;3.20;;;0.20;99.90;;;;;;5009459;28;20046;-86
2022/03/09 01:25:36;;;;;;;6.07;3.33;;;0.20;99.90;;;;;;5011210;28;20049;-86
2022/03/09 01:28:05;;;;;;;11.30;3.67;;;0.30;99.90;;;;;;5010112;28;20045;-86
2022/03/09 01:30:44;;;;;;;8.07;3.80;;;0.40;99.90;;;;;;5010471;28;20509;-86
2022/03/09 01:33:26;;;;;;;10.93;3.17;;;-0.10;99.90;;;;;;5026705;28;20048;-86
2022/03/09 01:36:06;;;;;;;7.75;3.80;;;0.80;99.90;;;;;;5009718;28;20448;-88
2022/03/09 01:38:51;;;;;;;6.20;3.80;;;0.10;99.90;;;;;;5028380;28;20088;-87
2022/03/09 01:41:35;;;;;;;10.05;4.18;;;0.30;99.90;;;;;;5009624;28;20164;-87
2022/03/09 01:44:18;;;;;;;8.10;4.00;;;0.10;99.90;;;;;;5009463;28;20280;-87
2022/03/09 01:46:59;;;;;;;7.85;4.13;;;0.10;99.90;;;;;;5010353;28;20065;-85
2022/03/09 01:49:28;;;;;;;11.50;4.15;;;-0.50;99.90;;;;;;5009871;28;20397;-88
2022/03/09 01:52:00;;;;;;;6.47;3.50;;;0.10;99.90;;;;;;5008325;28;20553;-87
2022/03/09 01:54:27;;;;;;;7.07;4.07;;;0.20;99.90;;;;;;4974822;28;20485;-86
2022/03/09 01:56:53;;;;;;;9.00;4.15;;;0.00;99.90;;;;;;4973788;28;20289;-86
2022/03/09 01:59:19;;;;;;;5.80;3.47;;;0.10;99.90;;;;;;4973904;28;20112;-86
2022/03/09 02:01:51;;;;;;;7.85;4.20;;;0.10;99.90;;;;;;4975067;28;20383;-86
2022/03/09 02:04:24;;;;;;;7.53;4.32;;;0.00;99.90;;;;;;4973163;28;20046;-86
2022/03/09 02:06:49;;;;;;;8.73;4.50;;;-0.20;99.90;;;;;;4974591;28;20053;-87
2022/03/09 02:12:13;;;;;;;6.70;4.07;;;0.00;99.90;;;;;;4989887;28;20128;-86
2022/03/09 02:14:46;;;;;;;9.80;4.47;;;0.00;99.90;;;;;;4974748;28;20509;-87
2022/03/09 02:17:26;;;;;;;12.68;5.15;;;-0.70;99.90;;;;;;4974196;28;20081;-87
2022/03/09 02:19:58;;;;;;;12.27;5.03;;;0.40;99.90;;;;;;4975764;28;20499;-87
2022/03/09 02:22:38;;;;;;;8.48;4.97;;;0.00;99.90;;;;;;4974544;28;20042;-87
2022/03/09 02:25:15;;;;;;;10.82;4.75;;;1.00;99.90;;;;;;4974427;28;20527;-87
2022/03/09 02:27:48;;;;;;;11.43;5.05;;;0.10;99.90;;;;;;4974506;28;20393;-87
2022/03/09 02:30:24;;;;;;;10.55;5.28;;;0.10;99.90;;;;;;4974788;28;20135;-87
2022/03/09 02:32:55;;;;;;;7.07;4.10;;;0.20;99.90;;;;;;4975894;28;20058;-87
2022/03/09 02:35:24;;;;;;;9.98;5.00;;;0.60;99.90;;;;;;4978147;28;20046;-87
2022/03/09 02:37:50;;;;;;;9.80;5.63;;;0.00;99.90;;;;;;4978676;28;20042;-88
2022/03/09 02:40:17;;;;;;;7.90;4.53;;;0.10;99.90;;;;;;4977868;28;20052;-87
2022/03/09 02:42:49;;;;;;;7.88;5.22;;;0.20;99.90;;;;;;4978426;28;20255;-87
2022/03/09 02:45:20;;;;;;;8.00;4.90;;;0.20;99.90;;;;;;4977937;28;20050;-88
2022/03/09 02:47:49;;;;;;;11.30;5.25;;;0.10;99.90;;;;;;4978274;28;20050;-87
2022/03/09 02:50:24;;;;;;;12.75;5.57;;;0.40;99.90;;;;;;4977968;28;20511;-87
2022/03/09 02:52:56;;;;;;;8.85;5.60;;;0.10;99.90;;;;;;4977629;28;20072;-88
2022/03/09 02:55:28;;;;;;;11.48;5.47;;;-0.10;99.90;;;;;;4977936;28;20144;-87
2022/03/09 02:57:57;;;;;;;13.95;5.57;;;0.10;99.90;;;;;;4977475;28;20244;-87
2022/03/09 03:00:28;;;;;;;13.00;6.53;;;-0.10;99.90;;;;;;4977671;28;20514;-87
2022/03/09 03:03:03;;;;;;;10.40;6.00;;;-0.30;99.90;;;;;;4978295;28;20120;-89
2022/03/09 03:05:35;;;;;;;10.75;5.72;;;-0.10;99.90;;;;;;4978482;28;20041;-88
2022/03/09 03:08:01;;;;;;;15.75;5.63;;;0.90;99.90;;;;;;4977658;28;20041;-87
2022/03/09 03:10:36;;;;;;;10.75;5.55;;;0.30;99.90;;;;;;4977901;28;20129;-87
2022/03/09 03:13:01;;;;;;;9.38;5.57;;;-0.30;99.90;;;;;;4977463;28;20057;-87
2022/03/09 03:15:27;;;;;;;10.55;5.05;;;0.50;99.90;;;;;;4976692;28;20050;-87
2022/03/09 03:17:56;;;;;;;9.32;5.60;;;-0.20;99.90;;;;;;4977606;28;20054;-86
2022/03/09 03:20:27;;;;;;;9.52;5.38;;;0.50;99.90;;;;;;4993072;28;20046;-86
2022/03/09 03:23:08;;;;;;;11.02;5.60;;;-0.20;99.90;;;;;;4977583;28;20488;-87
2022/03/09 03:25:43;;;;;;;12.40;5.75;;;0.20;99.90;;;;;;4977696;28;20100;-86
2022/03/09 03:28:21;;;;;;;10.43;5.90;;;1.20;99.90;;;;;;4976315;28;20047;-87
2022/03/09 03:31:17;;;;;;;13.75;6.03;;;0.50;99.90;;;;;;4977401;28;20065;-86
2022/03/09 03:33:42;;;;;;;12.35;5.78;;;-0.10;99.90;;;;;;4962928;28;20061;-87
2022/03/09 03:36:08;;;;;;;11.90;6.30;;;-0.40;99.90;;;;;;4976013;28;20056;-86
2022/03/09 03:38:46;;;;;;;11.13;6.47;;;-0.20;99.90;;;;;;4977265;28;20145;-86
2022/03/09 03:41:23;;;;;;;16.42;5.85;;;0.20;99.90;;;;;;4976283;28;20151;-86
2022/03/09 03:43:55;;;;;;;10.27;6.05;;;-0.10;99.90;;;;;;4975867;28;20052;-86
2022/03/09 03:46:30;;;;;;;21.10;6.13;;;-0.70;99.90;;;;;;4976522;28;20068;-86
2022/03/09 03:49:02;;;;;;;16.83;5.75;;;-0.70;99.90;;;;;;4992245;28;20136;-86
2022/03/09 03:51:34;;;;;;;11.90;5.90;;;-0.70;99.90;;;;;;4976545;28;20085;-87
2022/03/09 03:54:10;;;;;;;;;;;;;;;;;;;;;
2022/03/09 03:56:39;;;;;;;9.95;5.88;;;-0.50;99.90;;;;;;5011823;28;20060;-86
2022/03/09 03:59:04;;;;;;;14.00;7.35;;;-0.60;99.90;;;;;;4995321;28;20124;-87
2022/03/09 04:01:30;;;;;;;11.90;6.00;;;-0.60;99.90;;;;;;5012578;28;20041;-86
2022/03/09 04:03:55;;;;;;;10.57;6.38;;;-0.60;99.90;;;;;;4995223;28;20091;-86
2022/03/09 04:06:26;;;;;;;17.67;7.45;;;0.30;99.90;;;;;;4995313;28;20041;-86
2022/03/09 04:08:52;;;;;;;10.02;5.95;;;-0.70;99.90;;;;;;4996249;28;20047;-85
2022/03/09 04:11:18;;;;;;;12.77;6.40;;;-0.20;99.90;;;;;;5010314;28;20041;-86
2022/03/09 04:13:44;;;;;;;11.20;6.78;;;0.90;99.90;;;;;;4995827;28;20107;-86
2022/03/09 04:16:09;;;;;;;12.77;6.25;;;-0.30;99.90;;;;;;4995021;28;20060;-85
2022/03/09 04:18:35;;;;;;;11.95;6.28;;;0.00;99.90;;;;;;4995195;28;20038;-86
2022/03/09 04:21:01;;;;;;;17.55;6.75;;;-0.60;99.90;;;;;;4995848;28;20058;-86
2022/03/09 04:23:26;;;;;;;16.85;6.85;;;-0.10;99.90;;;;;;4995971;28;20128;-85
2022/03/09 04:26:02;;;;;;;12.18;7.32;;;-0.60;99.90;;;;;;4994712;28;20488;-86
2022/03/09 04:28:37;;;;;;;14.05;6.20;;;-0.60;99.90;;;;;;4995078;28;20067;-86
2022/03/09 04:31:09;;;;;;;10.23;5.88;;;0.40;99.90;;;;;;4994916;28;20563;-85
2022/03/09 04:33:34;;;;;;;11.27;6.45;;;-0.30;99.90;;;;;;4996036;28;20049;-86
2022/03/09 04:36:00;;;;;;;12.98;6.47;;;-0.70;99.90;;;;;;4994599;28;20428;-85
2022/03/09 04:38:41;;;;;;;15.77;7.25;;;-0.60;99.90;;;;;;4994568;28;20037;-87
2022/03/09 04:41:09;;;;;;;10.88;6.15;;;0.10;99.90;;;;;;4995013;28;20049;-86
2022/03/09 04:43:41;;;;;;;12.13;7.18;;;-0.50;99.90;;;;;;4995419;28;20394;-86
2022/03/09 04:46:16;;;;;;;15.73;6.85;;;-0.90;99.90;;;;;;4994462;28;20130;-87
2022/03/09 04:48:52;;;;;;;16.90;7.38;;;-1.20;99.90;;;;;;4995279;28;20041;-86
2022/03/09 04:51:22;;;;;;;10.50;6.45;;;-1.10;99.90;;;;;;4994499;28;20049;-85
2022/03/09 04:53:48;;;;;;;14.32;7.45;;;-0.90;99.90;;;;;;4994486;28;20140;-86
2022/03/09 04:56:26;;;;;;;13.57;7.35;;;-1.10;99.90;;;;;;5009638;28;20144;-85
2022/03/09 04:58:58;;;;;;;12.32;7.22;;;-0.30;99.90;;;;;;4993961;28;20547;-86
2022/03/09 05:01:24;;;;;;;10.57;6.60;;;-1.00;99.90;;;;;;5011124;28;20510;-86
2022/03/09 05:03:49;;;;;;;15.43;7.43;;;-1.40;99.90;;;;;;5011510;28;20140;-85
2022/03/09 05:06:27;;;;;;;15.75;6.68;;;-1.30;99.90;;;;;;4993547;28;20041;-86
2022/03/09 05:08:56;;;;;;;11.50;7.15;;;-0.80;99.90;;;;;;4995036;28;20480;-87
2022/03/09 05:11:34;;;;;;;13.63;7.57;;;-1.30;99.90;;;;;;4994076;28;20048;-86
2022/03/09 05:14:15;;;;;;;14.57;7.68;;;-1.60;99.90;;;;;;4994310;28;20124;-86
2022/03/09 05:17:07;;;;;;;13.32;7.70;;;-1.20;99.90;;;;;;4995468;28;20046;-86
2022/03/09 05:19:33;;;;;;;13.98;7.78;;;-1.30;99.90;;;;;;4966764;28;20049;-86
2022/03/09 05:21:59;;;;;;;12.93;7.07;;;-1.20;99.90;;;;;;4994258;28;20392;-86
2022/03/09 05:24:25;;;;;;;17.27;7.72;;;-1.20;99.90;;;;;;4994629;28;20045;-86
2022/03/09 05:26:56;;;;;;;17.83;7.78;;;0.50;99.90;;;;;;4994256;28;20052;-85
2022/03/09 05:29:28;;;;;;;14.30;7.43;;;0.30;99.90;;;;;;4992928;28;20083;-86
2022/03/09 05:32:00;;;;;;;14.38;7.40;;;-0.90;99.90;;;;;;4994409;28;20492;-86
2022/03/09 05:34:35;;;;;;;12.70;7.55;;;-0.30;99.90;;;;;;5010330;28;20054;-86
2022/03/09 05:37:04;;;;;;;12.63;6.68;;;-1.00;99.90;;;;;;5010504;28;20425;-86
2022/03/09 05:39:36;;;;;;;12.77;7.05;;;-0.60;99.90;;;;;;4994588;28;20175;-85
2022/03/09 05:42:17;;;;;;;12.98;7.00;;;-1.10;99.90;;;;;;5009359;28;20172;-85
2022/03/09 05:44:42;;;;;;;16.17;7.50;;;-1.20;99.90;;;;;;5010637;28;20563;-85
2022/03/09 05:47:08;;;;;;;11.40;6.80;;;-0.80;99.90;;;;;;5009274;28;20045;-85
2022/03/09 05:49:34;;;;;;;11.18;6.78;;;-0.60;99.90;;;;;;4993444;28;20500;-85
2022/03/09 05:52:25;;;;;;;11.32;7.55;;;-0.70;99.90;;;;;;4993799;28;20079;-85
2022/03/09 05:54:51;;;;;;;17.23;7.45;;;-1.00;99.90;;;;;;4993643;28;20046;-85
2022/03/09 05:57:26;;;;;;;17.98;7.35;;;-0.30;99.90;;;;;;4991996;28;20114;-86
2022/03/09 05:59:52;;;;;;;11.75;7.22;;;-1.00;99.90;;;;;;4994148;28;20509;-86
2022/03/09 06:02:27;;;;;;;14.30;8.02;;;-0.80;99.90;;;;;;4993153;28;20060;-85
2022/03/09 06:04:59;;;;;;;14.18;6.93;;;-1.30;99.90;;;;;;4994029;28;20608;-85
2022/03/09 06:07:25;;;;;;;14.13;7.63;;;-0.90;99.90;;;;;;5011090;28;20551;-86
2022/03/09 06:09:53;;;;;;;14.25;7.43;;;-0.90;99.90;;;;;;4997639;28;20045;-86
2022/03/09 06:12:19;;;;;;;11.80;7.32;;;-0.40;99.90;;;;;;4996737;28;20048;-86
2022/03/09 06:14:45;;;;;;;13.45;7.32;;;-0.80;99.90;;;;;;4998515;28;20049;-85
2022/03/09 06:17:16;;;;;;;12.55;7.20;;;-0.20;99.90;;;;;;4997131;28;20400;-86
2022/03/09 06:19:41;;;;;;;11.15;7.28;;;0.00;99.90;;;;;;4998324;28;20049;-85
2022/03/09 06:22:07;;;;;;;13.55;6.70;;;-0.80;99.90;;;;;;4997481;28;20045;-85
2022/03/09 06:24:42;;;;;;;14.20;7.22;;;-0.80;99.90;;;;;;4997083;28;20435;-85
2022/03/09 06:27:08;;;;;;;12.25;7.55;;;-0.50;99.90;;;;;;4996514;28;20107;-86
2022/03/09 06:29:33;;;;;;;12.07;7.07;;;-0.40;99.90;;;;;;4997702;28;20041;-85
2022/03/09 06:32:02;;;;;;;13.98;8.10;;;-0.70;99.90;;;;;;4996942;28;20045;-85
2022/03/09 06:34:28;;;;;;;15.05;7.47;;;-0.70;99.90;;;;;;4996932;28;20125;-85
2022/03/09 06:36:54;;;;;;;16.45;7.30;;;-0.10;99.90;;;;;;5013966;28;20128;-87
2022/03/09 06:39:20;;;;;;;12.27;6.95;;;-0.70;99.90;;;;;;5001815;28;20087;-87
2022/03/09 06:41:58;;;;;;;12.50;7.60;;;-1.40;99.90;;;;;;5017201;28;20445;-86
2022/03/09 06:45:09;;;;;;;12.98;7.80;;;-0.70;99.90;;;;;;5015715;28;20119;-86
2022/03/09 06:47:38;;;;;;;12.07;7.15;;;-0.60;99.90;;;;;;5016066;28;20060;-86
2022/03/09 06:50:08;;;;;;;13.95;7.40;;;-0.60;99.90;;;;;;5033121;28;20049;-86
2022/03/09 06:52:34;;;;;;;14.55;8.27;;;-0.50;99.90;;;;;;5013211;28;20591;-85
2022/03/09 06:55:12;;;;;;;12.63;7.60;;;0.10;99.90;;;;;;5016484;28;20048;-86
2022/03/09 06:57:38;;;;;;;19.00;8.52;;;0.30;99.90;;;;;;5015644;28;20052;-86
2022/03/09 07:00:06;;;;;;;17.83;7.97;;;-0.20;99.90;;;;;;4999336;28;20072;-86
2022/03/09 07:02:39;;;;;;;15.65;8.27;;;-0.30;99.90;;;;;;5012630;28;20128;-86
2022/03/09 07:05:05;;;;;;;16.38;7.55;;;1.60;99.90;;;;;;4995516;28;20052;-86
2022/03/09 07:07:44;;;;;;;14.23;8.00;;;-0.20;99.90;;;;;;4996650;28;20049;-87
2022/03/09 07:10:12;;;;;;;22.83;7.40;;;0.30;99.90;;;;;;5015123;28;20134;-87
2022/03/09 07:12:50;;;;;;;12.70;8.23;;;1.00;99.90;;;;;;5015614;28;20053;-86
2022/03/09 07:15:42;;;;;;;16.05;8.48;;;0.50;99.90;;;;;;5020833;23;20500;-85
2022/03/09 07:18:07;;;;;;;11.98;7.28;;;0.20;99.90;;;;;;5009884;28;20461;-86
2022/03/09 07:20:45;;;;;;;11.07;7.22;;;1.40;99.90;;;;;;5015436;28;20075;-85
2022/03/09 07:23:12;;;;;;;13.63;7.93;;;0.40;99.90;;;;;;5015506;28;20068;-86
2022/03/09 07:25:47;;;;;;;23.73;7.93;;;1.10;99.90;;;;;;5015851;28;20496;-85
2022/03/09 07:28:12;;;;;;;13.00;7.15;;;0.60;99.90;;;;;;5013225;28;20057;-85
2022/03/09 07:30:46;;;;;;;15.52;7.20;;;0.60;99.90;;;;;;5015927;28;20547;-88
2022/03/09 07:33:12;;;;;;;15.43;7.53;;;0.60;99.90;;;;;;5016061;28;20053;-87
2022/03/09 07:35:56;;;;;;;13.30;7.70;;;0.40;99.90;;;;;;5014730;28;20407;-87
2022/03/09 07:38:23;;;;;;;16.67;8.63;;;0.70;99.90;;;;;;5011391;28;20045;-87
2022/03/09 07:40:54;;;;;;;11.68;6.95;;;1.00;99.90;;;;;;5028213;28;20037;-87
2022/03/09 07:43:20;;;;;;;13.68;7.90;;;0.30;99.90;;;;;;5027917;28;20089;-87
2022/03/09 07:45:47;;;;;;;14.38;7.32;;;1.40;99.90;;;;;;5028958;28;20480;-87
2022/03/09 07:48:22;;;;;;;20.65;7.53;;;1.20;99.90;;;;;;5027021;28;20049;-85
2022/03/09 07:50:47;;;;;;;15.48;8.10;;;1.20;99.90;;;;;;5011505;28;20037;-86
2022/03/09 07:53:16;;;;;;;14.05;7.00;;;0.90;99.90;;;;;;5031326;28;20103;-86
2022/03/09 07:55:43;;;;;;;14.10;7.10;;;2.20;99.90;;;;;;5014162;28;20052;-85
2022/03/09 07:58:09;;;;;;;11.88;7.18;;;2.10;99.90;;;;;;5014128;28;20131;-86
2022/03/09 08:01:05;;;;;;;13.30;7.65;;;1.70;99.90;;;;;;5032089;28;20587;-86
2022/03/09 08:03:32;;;;;;;12.18;7.28;;;1.80;99.90;;;;;;4949480;28;20064;-86
2022/03/09 08:05:59;;;;;;;13.48;7.60;;;1.90;99.90;;;;;;5015284;28;20124;-87
2022/03/09 08:08:38;;;;;;;14.55;7.32;;;2.90;99.90;;;;;;5014746;28;20669;-85
2022/03/09 08:11:04;;;;;;;17.20;8.27;;;2.00;99.90;;;;;;4994444;28;20034;-85
2022/03/09 08:13:30;;;;;;;13.20;7.30;;;2.10;99.90;;;;;;4994232;28;20037;-85
2022/03/09 08:16:08;;;;;;;12.60;7.20;;;2.10;99.90;;;;;;4994326;28;20049;-86
2022/03/09 08:18:34;;;;;;;15.00;7.22;;;3.00;99.90;;;;;;4995168;28;20512;-86
2022/03/09 08:21:03;;;;;;;15.70;7.55;;;2.30;99.90;;;;;;4995215;28;20265;-85
2022/03/09 08:23:31;;;;;;;13.13;7.30;;;2.30;99.90;;;;;;5010098;28;20049;-85
2022/03/09 08:25:59;;;;;;;10.82;7.70;;;2.50;99.90;;;;;;4997691;28;20053;-85
2022/03/09 08:28:25;;;;;;;14.63;7.03;;;2.60;99.90;;;;;;5014036;28;20148;-85
2022/03/09 08:30:52;;;;;;;16.85;7.60;;;3.20;99.90;;;;;;5013406;28;20072;-85
2022/03/09 08:33:17;;;;;;;12.50;7.43;;;2.70;99.90;;;;;;5013759;28;20139;-86
2022/03/09 08:35:43;;;;;;;11.40;7.57;;;2.70;99.90;;;;;;5014498;28;20131;-85
2022/03/09 08:38:29;;;;;;;15.05;7.53;;;2.90;99.90;;;;;;5012956;28;20139;-86
2022/03/09 08:40:58;;;;;;;11.60;6.93;;;4.20;99.90;;;;;;5008501;28;20053;-85
2022/03/09 08:43:32;;;;;;;11.10;7.38;;;3.00;99.90;;;;;;5012554;28;20090;-85
2022/03/09 08:45:58;;;;;;;12.30;6.72;;;4.00;99.90;;;;;;5003017;28;20132;-84
2022/03/09 08:48:33;;;;;;;12.30;6.90;;;3.20;99.90;;;;;;4999444;28;20133;-88
2022/03/09 08:50:59;;;;;;;15.23;6.80;;;3.40;99.90;;;;;;4994262;28;20538;-84
2022/03/09 08:53:25;;;;;;;15.65;7.95;;;4.30;99.90;;;;;;4994628;28;20636;-84
2022/03/09 08:55:51;;;;;;;10.77;6.70;;;3.50;99.90;;;;;;4994142;28;20045;-86
2022/03/09 08:58:16;;;;;;;16.58;7.63;;;3.00;99.90;;;;;;4993300;28;20139;-85
2022/03/09 09:00:42;;;;;;;13.38;7.55;;;3.70;99.90;;;;;;4994876;28;20075;-84
2022/03/09 09:03:09;;;;;;;14.75;6.88;;;5.00;99.90;;;;;;5011294;28;20489;-85
2022/03/09 09:05:45;;;;;;;13.52;7.32;;;4.00;99.90;;;;;;5010503;28;20061;-85
2022/03/09 09:08:26;;;;;;;10.88;7.15;;;5.20;99.90;;;;;;4994235;28;20060;-84
2022/03/09 09:10:52;;;;;;;14.52;6.85;;;4.00;99.90;;;;;;5010715;28;20100;-84
2022/03/09 09:13:18;;;;;;;12.85;6.60;;;4.20;99.90;;;;;;4993026;28;20432;-83
2022/03/09 09:16:04;;;;;;;10.32;7.10;;;4.30;99.90;;;;;;5004436;28;20141;-83
2022/03/09 09:18:30;;;;;;;19.95;6.88;;;4.50;99.90;;;;;;4991199;28;20057;-83
2022/03/09 09:20:56;;;;;;;14.60;6.50;;;4.50;99.90;;;;;;4990608;28;20051;-84
2022/03/09 09:23:23;;;;;;;12.88;6.53;;;4.60;99.90;;;;;;4974886;28;20041;-83
2022/03/09 09:25:49;;;;;;;17.58;7.28;;;4.70;99.90;;;;;;4973953;28;20509;-84
2022/03/09 09:28:16;;;;;;;11.13;7.32;;;5.20;99.90;;;;;;4973456;28;20058;-84
2022/03/09 09:30:42;;;;;;;12.20;6.40;;;4.90;99.90;;;;;;4991721;28;20440;-83
2022/03/09 09:33:09;;;;;;;12.88;6.78;;;5.00;99.90;;;;;;4983629;28;20049;-84
2022/03/09 09:35:35;;;;;;;13.63;6.35;;;5.10;99.90;;;;;;5010145;28;20045;-85
2022/03/09 09:38:06;;;;;;;13.82;8.63;;;5.20;99.90;;;;;;4992243;28;20041;-85
2022/03/09 09:40:41;;;;;;;12.30;8.80;;;6.20;99.90;;;;;;4992686;28;20116;-84
2022/03/09 09:43:10;;;;;;;27.13;16.52;;;5.40;99.90;;;;;;4990493;28;20129;-84
2022/03/09 09:45:42;;;;;;;27.83;15.48;;;6.50;99.90;;;;;;4993292;28;20041;-84
2022/03/09 09:48:10;;;;;;;12.98;8.07;;;5.50;99.90;;;;;;4992312;28;20049;-84
2022/03/09 09:50:51;;;;;;;10.98;6.45;;;6.70;99.90;;;;;;5009636;28;20037;-84
2022/03/09 09:53:17;;;;;;;12.98;7.60;;;5.80;99.90;;;;;;4992485;28;20481;-84
2022/03/09 09:55:43;;;;;;;14.73;9.82;;;6.30;99.90;;;;;;5007911;28;20033;-85
2022/03/09 09:58:10;;;;;;;15.15;9.20;;;5.90;99.90;;;;;;5008336;28;20327;-84
2022/03/09 10:00:36;;;;;;;12.70;7.85;;;6.60;99.90;;;;;;5009361;28;20115;-85
2022/03/09 10:03:03;;;;;;;12.10;6.53;;;6.10;99.90;;;;;;5008391;28;20496;-84
2022/03/09 10:05:29;;;;;;;12.30;6.88;;;6.30;99.90;;;;;;4992981;28;20038;-86
2022/03/09 10:08:04;;;;;;;14.25;7.00;;;7.30;99.90;;;;;;4993227;28;20057;-86
2022/03/09 10:10:39;;;;;;;16.10;6.88;;;6.40;99.90;;;;;;5006636;28;20104;-85
2022/03/09 10:13:16;;;;;;;13.43;6.80;;;6.50;99.90;;;;;;4987485;28;20057;-83
2022/03/09 10:15:44;;;;;;;11.52;6.95;;;6.90;99.90;;;;;;5007192;28;20160;-83
2022/03/09 10:18:14;;;;;;;12.32;7.38;;;6.80;99.90;;;;;;4990931;28;20053;-84
2022/03/09 10:20:42;;;;;;;15.32;6.60;;;6.80;99.90;;;;;;4992801;28;20127;-85
2022/03/09 10:23:08;;;;;;;10.98;6.70;;;6.90;99.90;;;;;;4990327;28;20504;-83
2022/03/09 10:25:34;;;;;;;10.48;6.32;;;7.00;99.90;;;;;;5008466;28;20408;-85
2022/03/09 10:28:06;;;;;;;10.73;6.40;;;7.00;99.90;;;;;;4991653;28;20128;-85
2022/03/09 10:30:40;;;;;;;20.20;7.03;;;7.10;99.90;;;;;;4991682;28;20402;-85
2022/03/09 10:33:08;;;;;;;12.95;6.78;;;7.20;99.90;;;;;;5005330;28;20501;-84
2022/03/09 10:35:34;;;;;;;12.63;6.55;;;7.20;99.90;;;;;;4992532;28;20052;-85
2022/03/09 10:38:01;;;;;;;11.57;7.40;;;7.60;99.90;;;;;;5006670;28;20136;-85
2022/03/09 10:40:28;;;;;;;13.15;6.28;;;7.40;99.90;;;;;;4992128;28;20497;-85
2022/03/09 10:43:14;;;;;;;11.07;6.22;;;7.40;99.90;;;;;;5005586;28;20412;-86
2022/03/09 10:46:09;;;;;;;13.80;7.00;;;7.60;99.90;;;;;;4986934;28;20046;-85
2022/03/09 10:49:04;;;;;;;17.83;11.25;;;7.70;99.90;;;;;;4969953;28;20215;-84
2022/03/09 10:51:36;;;;;;;14.65;7.00;;;7.70;99.90;;;;;;4970359;28;20050;-84
2022/03/09 10:54:06;;;;;;;47.97;32.53;;;7.80;99.90;;;;;;4973240;28;20100;-85
2022/03/09 10:56:33;;;;;;;34.47;24.70;;;8.20;99.90;;;;;;4990189;28;20513;-85
2022/03/09 10:59:14;;;;;;;10.50;6.93;;;7.90;99.90;;;;;;4989898;28;20494;-85
2022/03/09 11:01:40;;;;;;;13.18;7.10;;;8.00;99.90;;;;;;4989488;28;20055;-85
2022/03/09 11:04:11;;;;;;;10.63;7.13;;;8.80;99.90;;;;;;4993673;28;20042;-84
2022/03/09 11:06:42;;;;;;;9.30;7.07;;;8.10;99.90;;;;;;4990715;28;20052;-84
2022/03/09 11:09:10;;;;;;;12.80;6.82;;;8.40;99.90;;;;;;5009181;28;20057;-83
2022/03/09 11:11:38;;;;;;;12.48;6.72;;;8.80;99.90;;;;;;4991088;28;20129;-84
2022/03/09 11:14:04;;;;;;;10.13;6.93;;;8.40;99.90;;;;;;4995265;28;20049;-85
2022/03/09 11:16:31;;;;;;;14.45;6.93;;;8.40;99.90;;;;;;4992612;28;20408;-84
2022/03/09 11:18:57;;;;;;;19.13;13.38;;;8.40;99.90;;;;;;4994378;28;20033;-86
2022/03/09 11:21:23;;;;;;;15.48;11.07;;;8.50;99.90;;;;;;4993802;28;20060;-85
2022/03/09 11:23:50;;;;;;;15.32;8.85;;;9.20;99.90;;;;;;5011825;28;20037;-84
2022/03/09 11:26:21;;;;;;;13.82;8.15;;;8.70;99.90;;;;;;4991955;28;20045;-85
2022/03/09 11:28:47;;;;;;;13.80;7.70;;;8.80;99.90;;;;;;4995259;28;20041;-85
2022/03/09 11:31:15;;;;;;;12.27;7.70;;;8.80;99.90;;;;;;5011945;28;20071;-84
2022/03/09 11:33:44;;;;;;;10.90;6.53;;;9.80;99.90;;;;;;4995492;28;20065;-84
2022/03/09 11:36:22;;;;;;;10.70;6.85;;;9.10;99.90;;;;;;4995959;28;20045;-83
2022/03/09 11:38:52;;;;;;;15.02;7.03;;;9.30;99.90;;;;;;4992515;28;20042;-85
2022/03/09 11:41:23;;;;;;;11.98;7.22;;;9.10;99.90;;;;;;4974932;28;20432;-84
2022/03/09 11:43:50;;;;;;;11.45;7.00;;;9.20;99.90;;;;;;4992311;28;20050;-84
2022/03/09 11:46:17;;;;;;;13.85;7.28;;;9.00;99.90;;;;;;4997784;28;20509;-84
2022/03/09 11:48:53;;;;;;;14.50;7.60;;;9.20;99.70;;;;;;5010215;28;20038;-84
2022/03/09 11:51:20;;;;;;;13.55;6.88;;;9.30;99.70;;;;;;4984520;28;20497;-83
2022/03/09 11:53:51;;;;;;;12.82;7.28;;;9.30;99.90;;;;;;4994472;28;20453;-84
2022/03/09 11:56:21;;;;;;;11.85;7.07;;;9.00;98.50;;;;;;4991734;28;20045;-83
2022/03/09 11:59:09;;;;;;;11.65;7.43;;;10.00;99.10;;;;;;4994180;28;20511;-84
2022/03/09 12:01:57;;;;;;;13.48;7.13;;;9.50;98.00;;;;;;4994148;28;20037;-83
2022/03/09 12:04:42;;;;;;;11.88;7.07;;;9.60;98.40;;;;;;5009013;28;20042;-84
2022/03/09 12:07:09;;;;;;;11.15;6.10;;;9.70;97.90;;;;;;4992539;28;20068;-83
2022/03/09 12:09:58;;;;;;;13.88;6.45;;;9.80;98.10;;;;;;4988167;28;20042;-83
2022/03/09 12:12:26;;;;;;;27.17;20.95;;;9.80;92.70;;;;;;4975056;28;20062;-82
2022/03/09 12:15:00;;;;;;;16.10;11.20;;;10.20;94.60;;;;;;4992357;28;20131;-83
2022/03/09 12:17:37;;;;;;;17.40;12.38;;;9.90;93.50;;;;;;5011522;28;20052;-84
2022/03/09 12:20:16;;;;;;;10.77;7.00;;;9.90;93.10;;;;;;5011357;28;20076;-83
2022/03/09 12:22:56;;;;;;;14.65;7.88;;;10.00;90.80;;;;;;5011483;28;20626;-84
2022/03/09 12:25:43;;;;;;;10.70;6.53;;;10.30;91.60;;;;;;5011215;28;20049;-84
2022/03/09 12:28:23;;;;;;;12.60;7.00;;;10.10;90.70;;;;;;5027738;28;20564;-85
2022/03/09 12:30:53;;;;;;;9.85;6.60;;;10.10;90.80;;;;;;5013978;28;20746;-84
2022/03/09 12:33:34;;;;;;;10.30;6.50;;;10.10;90.40;;;;;;5029962;28;20045;-85
2022/03/09 12:36:05;;;;;;;9.70;6.57;;;10.10;89.70;;;;;;5012267;28;20045;-85
2022/03/09 12:38:36;;;;;;;11.23;7.03;;;10.10;90.10;;;;;;5011517;28;20464;-86
2022/03/09 12:41:02;;;;;;;13.20;6.95;;;10.20;89.70;;;;;;5029671;28;20409;-85
2022/03/09 12:43:45;;;;;;;15.77;6.93;;;10.30;88.80;;;;;;5012760;28;20198;-86
2022/03/09 12:46:11;;;;;;;11.60;6.30;;;10.30;87.60;;;;;;5011217;28;20524;-85
2022/03/09 12:48:39;;;;;;;11.88;6.90;;;10.60;87.60;;;;;;5012443;28;20174;-84
2022/03/09 12:51:05;;;;;;;12.07;6.85;;;10.40;84.10;;;;;;5012616;28;20051;-85
2022/03/09 12:53:32;;;;;;;9.43;6.40;;;10.80;80.80;;;;;;5013737;28;20033;-86
2022/03/09 12:55:58;;;;;;;9.65;6.93;;;10.40;82.00;;;;;;5030276;28;20045;-85
2022/03/09 12:58:24;;;;;;;11.38;6.68;;;10.80;80.60;;;;;;5011394;28;20056;-86
2022/03/09 13:01:02;;;;;;;13.32;6.65;;;10.90;79.50;;;;;;5013495;28;20044;-85
2022/03/09 13:03:28;;;;;;;11.75;7.13;;;10.60;76.20;;;;;;5012811;28;20454;-85
2022/03/09 13:05:54;;;;;;;12.82;6.47;;;10.60;76.70;;;;;;5011255;28;20128;-84
2022/03/09 13:08:19;;;;;;;12.60;7.60;;;10.60;75.60;;;;;;5028841;28;20048;-84
2022/03/09 13:10:49;;;;;;;12.90;6.63;;;10.60;75.90;;;;;;5028962;28;20040;-85
2022/03/09 13:13:15;;;;;;;12.48;7.15;;;11.00;75.60;;;;;;5025798;28;20052;-85
2022/03/09 13:15:46;;;;;;;10.23;6.07;;;11.50;76.40;;;;;;5029747;28;20510;-85
2022/03/09 13:18:29;;;;;;;13.02;7.07;;;10.60;72.50;;;;;;5012516;28;20052;-85
2022/03/09 13:20:57;;;;;;;15.38;6.57;;;10.60;72.20;;;;;;5010690;28;20045;-84
2022/03/09 13:23:25;;;;;;;13.40;7.22;;;10.60;73.60;;;;;;5012773;28;20091;-85
2022/03/09 13:25:52;;;;;;;10.90;6.63;;;10.70;74.80;;;;;;5028280;28;20048;-85
2022/03/09 13:28:28;;;;;;;13.77;8.70;;;10.80;73.60;;;;;;5008383;28;20091;-86
2022/03/09 13:30:54;;;;;;;11.95;6.35;;;11.50;71.50;;;;;;5013664;28;20499;-84